Sally Bromfield — WDG4107 — position and weather

sailwx.info

Track history (hours):
 
Tides and Currents Weather Stations Pressure Air Temp Water Temp Dewpoint Dewpoint Depression Visibility Wind Speed Wind Dir Waves Ship Positions

Sally Bromfield

Owner: Ingram Barge Company LLC, Nashville, TN. More information available from US FCC via Universal Licensing System and Coast Guard Vessel Documentation Center.

Last reported at 2017-Nov-17 20:36 UTC. Time now 2017-Nov-22 09:22 UTC.
Position N 32°40' W 091°07'.

Length 55 m; draft 3 m.

Type: Towing. MMSI: 367533050.

Date/timePositionNaut miles runAvg speedWind from/ knotsBaromVisibWave heightAir tempDewpointWater temp
2017-Nov-17 20:36N 32°40' W 091°07'1 6.0
2017-Nov-17 20:31N 32°40' W 091°07'3 5.0
2017-Nov-17 20:00N 32°38' W 091°09'2 2.3
2017-Nov-17 19:05N 32°36' W 091°09'1 4.6
2017-Nov-17 18:58N 32°36' W 091°08'4 5.5
2017-Nov-17 18:19N 32°33' W 091°06'2 5.1
2017-Nov-17 17:58N 32°31' W 091°06'3 5.9
2017-Nov-17 17:31N 32°29' W 091°07'3 5.3
2017-Nov-17 17:01N 32°27' W 091°05'3 5.8
2017-Nov-17 16:31N 32°26' W 091°01'3 5.1
2017-Nov-17 16:01N 32°24' W 090°59'3 5.1
2017-Nov-17 15:31N 32°21' W 091°00'3 6.1
2017-Nov-17 15:00N 32°21' W 090°56'2 4.7
2017-Nov-17 14:31N 32°20' W 090°54'2 3.8
2017-Nov-17 14:01N 32°18' W 090°55'0 0.0
2017-Nov-17 13:31N 32°18' W 090°55'0 0.0
2017-Nov-17 13:01N 32°18' W 090°55'1 1.1
2017-Nov-17 12:30N 32°18' W 090°56'1 1.2
2017-Nov-17 12:01N 32°17' W 090°56'2 3.3
2017-Nov-17 11:30N 32°16' W 090°58'3 5.2
2017-Nov-17 11:01N 32°14' W 090°59'3 5.5
2017-Nov-17 10:31N 32°11' W 090°60'3 5.5
2017-Nov-17 10:01N 32°09' W 091°00'2 4.7
2017-Nov-17 09:30N 32°07' W 091°03'2 5.2
2017-Nov-17 09:01N 32°08' W 091°05'2 4.0
2017-Nov-17 08:30N 32°06' W 091°06'3 5.8
2017-Nov-17 07:59N 32°04' W 091°03'9 5.0
2017-Nov-17 06:11N 31°58' W 091°11'  
Track history (hours):
 
Tides and Currents Weather Stations Pressure Air Temp Water Temp Dewpoint Dewpoint Depression Visibility Wind Speed Wind Dir Waves Ship Positions

Sally Bromfield

Owner: Ingram Barge Company LLC, Nashville, TN. More information available from US FCC via Universal Licensing System and Coast Guard Vessel Documentation Center.

Last reported at 2017-Nov-17 20:36 UTC. Time now 2017-Nov-22 09:22 UTC.
Position N 32°40' W 091°07'.

Length 55 m; draft 3 m.

Type: Towing. MMSI: 367533050.

Date/timePositionNaut miles runAvg speedWind from/ knotsBaromVisibWave heightAir tempDewpointWater temp
2017-Nov-17 20:36N 32°40' W 091°07'1 6.0
2017-Nov-17 20:31N 32°40' W 091°07'3 5.0
2017-Nov-17 20:00N 32°38' W 091°09'2 2.3
2017-Nov-17 19:05N 32°36' W 091°09'1 4.6
2017-Nov-17 18:58N 32°36' W 091°08'4 5.5
2017-Nov-17 18:19N 32°33' W 091°06'2 5.1
2017-Nov-17 17:58N 32°31' W 091°06'3 5.9
2017-Nov-17 17:31N 32°29' W 091°07'3 5.3
2017-Nov-17 17:01N 32°27' W 091°05'3 5.8
2017-Nov-17 16:31N 32°26' W 091°01'3 5.1
2017-Nov-17 16:01N 32°24' W 090°59'3 5.1
2017-Nov-17 15:31N 32°21' W 091°00'3 6.1
2017-Nov-17 15:00N 32°21' W 090°56'2 4.7
2017-Nov-17 14:31N 32°20' W 090°54'2 3.8
2017-Nov-17 14:01N 32°18' W 090°55'0 0.0
2017-Nov-17 13:31N 32°18' W 090°55'0 0.0
2017-Nov-17 13:01N 32°18' W 090°55'1 1.1
2017-Nov-17 12:30N 32°18' W 090°56'1 1.2
2017-Nov-17 12:01N 32°17' W 090°56'2 3.3
2017-Nov-17 11:30N 32°16' W 090°58'3 5.2
2017-Nov-17 11:01N 32°14' W 090°59'3 5.5
2017-Nov-17 10:31N 32°11' W 090°60'3 5.5
2017-Nov-17 10:01N 32°09' W 091°00'2 4.7
2017-Nov-17 09:30N 32°07' W 091°03'2 5.2
2017-Nov-17 09:01N 32°08' W 091°05'2 4.0
2017-Nov-17 08:30N 32°06' W 091°06'3 5.8
2017-Nov-17 07:59N 32°04' W 091°03'9 5.0
2017-Nov-17 06:11N 31°58' W 091°11'  

Dump ship's entire track history